Airfield :
LOGIN :

Register | Disclaimer

   EN    FR    IT 

 










Legend :    VFR   Marginal VFR   IFR   Intensive IFR   Very Intensive IFR
Visi :
Ceiling :
>= 8 km
>= 3000ft
5 to 8 km
1000 to 3000 ft
1500m to 5 km
500 to 1000 ft
800 to 1500m
200 to 500 ft
< 800m
< 200 ft
Symbols :   Thunderstorms  Fog  Heavy snow  Heavy precipitations  Wind > 20 kt
SIGMETs :     Misc.  Thunderstorms  Icing  Turbulence  Mountain Waves  Volcanic Ashes







- Airport Elevation : 147 ft
- IATA code : DUS


EDDL - Düsseldorf Int.

CURRENT METAR :
  • 211150Z VRB02KT 9999 SCT043 BKN300 21/10 Q1023 NOSIG

EXPIRED METARs :
  • 211120Z VRB02KT 9999 SCT043 20/08 Q1023 NOSIG
  • 211050Z VRB04KT 9999 SCT032 19/09 Q1024 NOSIG
  • 211020Z 25003KT 140V310 9999 SCT032 19/09 Q1024 NOSIG
  • 210950Z 28004KT 240V010 9999 FEW032 19/10 Q1024 NOSIG
  • 210920Z VRB02KT 9999 FEW028 18/10 Q1024 NOSIG

TAF TAF EDDL
Valid from the 21 at 12:00 until the 22 at 18:00 UTC


211100Z 2112/2218 28005KT 9999 FEW040
BECMG 2115/2118 15005KT
No reported NOTAMs for that airfield.



MET'MAP, your aeronautical weather chart ! - Copyright ORBIFLY December 2007 - Disclaimer

ORBIFLY MET'MAP TEAM :

Programming & Development : Alexandra Zaïnal
Concept & Development : Baudouin d'Aumeries
Co-Development & Prog : Marc-Olivier Méhu
Technical & hardware support : Manuel Goepfert

Contact : metmap@orbifly.com




SOURCES & CREDITS :

   NOAA